Terminal Aerodrome Forecast
Issued by NWS Wichita, KS

Home | Current Version | Previous Version | Graphics & Text | Print | Product List | Glossary On
Versions: 1 2 3 4 5 6 7 8 9 10 11 12 13 14 15 16
000
FTUS43 KICT 242340
TAFICT
TAF
KICT 242340Z 2500/2524 18013KT P6SM BKN250
     FM250200 15009KT P6SM BKN250
     FM250400 15009KT P6SM BKN250 WS020/18045KT
     FM251000 15009KT P6SM BKN250
     FM251700 20008KT P6SM BKN120
     FM252200 31012KT P6SM SCT035 BKN120=

USA.gov is the U.S. government's official web portal to all federal, state and local government web resources and services.